This is the latest recevied weather packets stored in our database for station/object N9BLE. If no packets are shown the sender has not sent any weather packets the latest 10 day(s).
| Time | Temp. | Humidity | Pressure | Rain* | Wind** | Luminosity | Snow |
|---|---|---|---|---|---|---|---|
| 1777557116 | 9.44° C | 66% | 1020.5 hPa | 0 mm | - | 73 W/m² | - |
| 1777556811 | 8.89° C | 64% | 1020.3 hPa | 0 mm | - | 151 W/m² | - |
| 1777556508 | 8.33° C | 70% | 1020.5 hPa | 0 mm | - | 97 W/m² | - |
| 1777556207 | 8.33° C | 66% | 1020.3 hPa | 0 mm | - | 106 W/m² | - |
| 1777555903 | 8.89° C | 67% | 1020.4 hPa | 0 mm | - | 119 W/m² | - |
| 1777555599 | 8.33° C | 67% | 1020.4 hPa | 0 mm | - | 159 W/m² | - |
| 1777555296 | 7.78° C | 73% | 1020.4 hPa | 0 mm | - | 121 W/m² | - |
| 1777554993 | 7.78° C | 74% | 1020.7 hPa | 0 mm | - | 74 W/m² | - |
| 1777554690 | 8.33° C | 77% | 1020.4 hPa | 0 mm | - | 89 W/m² | - |
| 1777554387 | 7.22° C | 82% | 1020.3 hPa | 0 mm | - | 124 W/m² | - |
| 1777554084 | 6.67° C | 80% | 1020.4 hPa | 0 mm | - | 51 W/m² | - |
| 1777553780 | 7.22° C | 79% | 1020.6 hPa | 0 mm | - | 39 W/m² | - |
| 1777553477 | 7.22° C | 78% | 1020.6 hPa | 0 mm | - | 58 W/m² | - |
| 1777553172 | 6.67° C | 79% | 1020.4 hPa | 0 mm | - | 96 W/m² | - |
| 1777552868 | 6.67° C | 82% | 1020.6 hPa | 0 mm | - | 90 W/m² | - |
| 1777552563 | 6.11° C | 83% | 1020.4 hPa | 0 mm | - | 75 W/m² | - |
| 1777552260 | 5.56° C | 83% | 1020.4 hPa | 0 mm | - | 52 W/m² | - |
| 1777551956 | 6.11° C | 84% | 1020.4 hPa | 0 mm | - | 54 W/m² | - |
| 1777551654 | 5.56° C | 85% | 1020.5 hPa | 0 mm | - | 62 W/m² | - |
| 1777551352 | 5.56° C | 85% | 1020.3 hPa | 0 mm | - | 43 W/m² | - |
| 1777551048 | 5.56° C | 87% | 1020.3 hPa | 0 mm | - | 42 W/m² | - |
| 1777550745 | 5° C | 88% | 1020.3 hPa | 0 mm | - | 50 W/m² | - |
| 1777550441 | 4.44° C | 90% | 1020.3 hPa | 0 mm | - | 45 W/m² | - |
| 1777550137 | 3.89° C | 91% | 1020.4 hPa | 0 mm | - | 39 W/m² | - |
| 1777549834 | 3.89° C | 92% | 1020.4 hPa | 0 mm | - | 28 W/m² | - |
* Rain latest hour (hover to see other rain measurements)
** Current wind speed in m/s (hover to see current wind gust speed)